sensor_id;sensor_type;location;lat;lon;timestamp;pressure;altitude;pressure_sealevel;temperature;humidity
48630;BME280;34426;52.180;4.462;2023-02-02T00:01:52;102247.59;;;7.51;84.60
48630;BME280;34426;52.180;4.462;2023-02-02T00:04:19;102261.31;;;7.52;84.32
48630;BME280;34426;52.180;4.462;2023-02-02T00:06:45;102260.25;;;7.53;84.35
48630;BME280;34426;52.180;4.462;2023-02-02T00:09:13;102266.44;;;7.55;84.00
48630;BME280;34426;52.180;4.462;2023-02-02T00:11:39;102256.16;;;7.56;83.84
48630;BME280;34426;52.180;4.462;2023-02-02T00:14:05;102252.31;;;7.57;84.19
48630;BME280;34426;52.180;4.462;2023-02-02T00:16:36;102251.25;;;7.58;83.71
48630;BME280;34426;52.180;4.462;2023-02-02T00:19:03;102259.38;;;7.59;83.45
48630;BME280;34426;52.180;4.462;2023-02-02T00:21:29;102254.47;;;7.61;83.40
48630;BME280;34426;52.180;4.462;2023-02-02T00:23:55;102259.81;;;7.63;83.20
48630;BME280;34426;52.180;4.462;2023-02-02T00:26:22;102267.09;;;7.64;82.79
48630;BME280;34426;52.180;4.462;2023-02-02T00:28:49;102261.31;;;7.65;82.81
48630;BME280;34426;52.180;4.462;2023-02-02T00:31:14;102271.38;;;7.66;83.12
48630;BME280;34426;52.180;4.462;2023-02-02T00:33:43;102254.69;;;7.66;82.95
48630;BME280;34426;52.180;4.462;2023-02-02T00:36:09;102266.91;;;7.65;82.59
48630;BME280;34426;52.180;4.462;2023-02-02T00:38:34;102261.31;;;7.65;82.86
48630;BME280;34426;52.180;4.462;2023-02-02T00:40:59;102263.03;;;7.66;82.76
48630;BME280;34426;52.180;4.462;2023-02-02T00:43:26;102274.19;;;7.66;82.70
48630;BME280;34426;52.180;4.462;2023-02-02T00:45:52;102258.31;;;7.67;82.70
48630;BME280;34426;52.180;4.462;2023-02-02T00:48:17;102268.19;;;7.70;83.01
48630;BME280;34426;52.180;4.462;2023-02-02T00:50:43;102261.75;;;7.69;83.89
48630;BME280;34426;52.180;4.462;2023-02-02T00:53:08;102255.75;;;7.59;84.86
48630;BME280;34426;52.180;4.462;2023-02-02T00:55:33;102250.81;;;7.48;85.37
48630;BME280;34426;52.180;4.462;2023-02-02T00:57:59;102258.09;;;7.42;85.88
48630;BME280;34426;52.180;4.462;2023-02-02T01:00:26;102254.88;;;7.39;86.24
48630;BME280;34426;52.180;4.462;2023-02-02T01:02:53;102257.88;;;7.37;85.53
48630;BME280;34426;52.180;4.462;2023-02-02T01:05:19;102270.31;;;7.34;86.11
48630;BME280;34426;52.180;4.462;2023-02-02T01:07:45;102273.72;;;7.37;85.63
48630;BME280;34426;52.180;4.462;2023-02-02T01:10:13;102276.50;;;7.37;85.55
48630;BME280;34426;52.180;4.462;2023-02-02T01:12:39;102275.41;;;7.38;85.09
48630;BME280;34426;52.180;4.462;2023-02-02T01:15:05;102272.22;;;7.41;84.94
48630;BME280;34426;52.180;4.462;2023-02-02T01:17:32;102258.94;;;7.43;84.71
48630;BME280;34426;52.180;4.462;2023-02-02T01:19:58;102261.72;;;7.43;84.42
48630;BME280;34426;52.180;4.462;2023-02-02T01:22:24;102261.72;;;7.43;84.53
48630;BME280;34426;52.180;4.462;2023-02-02T01:24:49;102263.44;;;7.44;84.13
48630;BME280;34426;52.180;4.462;2023-02-02T01:27:15;102275.44;;;7.44;84.09
48630;BME280;34426;52.180;4.462;2023-02-02T01:29:40;102267.09;;;7.44;84.08
48630;BME280;34426;52.180;4.462;2023-02-02T01:32:06;102269.66;;;7.46;83.91
48630;BME280;34426;52.180;4.462;2023-02-02T01:34:33;102261.09;;;7.47;83.89
48630;BME280;34426;52.180;4.462;2023-02-02T01:36:58;102281.44;;;7.48;83.62
48630;BME280;34426;52.180;4.462;2023-02-02T01:39:24;102262.59;;;7.50;83.34
48630;BME280;34426;52.180;4.462;2023-02-02T01:41:50;102275.22;;;7.52;83.16
48630;BME280;34426;52.180;4.462;2023-02-02T01:47:18;102259.16;;;7.54;82.75
48630;BME280;34426;52.180;4.462;2023-02-02T01:49:46;102278.44;;;7.56;83.17
48630;BME280;34426;52.180;4.462;2023-02-02T01:52:13;102270.75;;;7.58;83.13
48630;BME280;34426;52.180;4.462;2023-02-02T01:54:43;102271.59;;;7.58;83.32
48630;BME280;34426;52.180;4.462;2023-02-02T01:57:14;102268.59;;;7.60;83.01
48630;BME280;34426;52.180;4.462;2023-02-02T01:59:41;102276.94;;;7.60;83.26
48630;BME280;34426;52.180;4.462;2023-02-02T02:02:07;102282.53;;;7.60;83.27
48630;BME280;34426;52.180;4.462;2023-02-02T02:04:33;102257.47;;;7.60;82.91
48630;BME280;34426;52.180;4.462;2023-02-02T02:07:00;102289.81;;;7.61;83.02
48630;BME280;34426;52.180;4.462;2023-02-02T02:09:27;102275.88;;;7.61;82.94
48630;BME280;34426;52.180;4.462;2023-02-02T02:11:53;102281.44;;;7.61;83.24
48630;BME280;34426;52.180;4.462;2023-02-02T02:14:19;102281.44;;;7.61;83.24
48630;BME280;34426;52.180;4.462;2023-02-02T02:16:59;102277.81;;;7.60;83.51
48630;BME280;34426;52.180;4.462;2023-02-02T02:19:58;102263.03;;;7.60;83.02
48630;BME280;34426;52.180;4.462;2023-02-02T02:22:39;102275.88;;;7.61;82.91
48630;BME280;34426;52.180;4.462;2023-02-02T02:25:36;102257.47;;;7.60;83.50
48630;BME280;34426;52.180;4.462;2023-02-02T02:31:10;102260.03;;;7.48;84.59
48630;BME280;34426;52.180;4.462;2023-02-02T02:33:45;102263.00;;;7.47;84.52
48630;BME280;34426;52.180;4.462;2023-02-02T02:36:16;102261.09;;;7.47;84.42
48630;BME280;34426;52.180;4.462;2023-02-02T02:38:47;102260.03;;;7.48;84.34
48630;BME280;34426;52.180;4.462;2023-02-02T02:41:19;102261.53;;;7.51;84.13
48630;BME280;34426;52.180;4.462;2023-02-02T02:43:50;102251.25;;;7.51;84.06
48630;BME280;34426;52.180;4.462;2023-02-02T02:46:17;102240.75;;;7.53;83.84
48630;BME280;34426;52.180;4.462;2023-02-02T02:48:44;102261.75;;;7.56;83.79
48630;BME280;34426;52.180;4.462;2023-02-02T02:54:17;102251.91;;;7.60;83.65
48630;BME280;34426;52.180;4.462;2023-02-02T02:57:00;102251.91;;;7.60;83.67
48630;BME280;34426;52.180;4.462;2023-02-02T02:59:36;102261.97;;;7.61;83.01
48630;BME280;34426;52.180;4.462;2023-02-02T03:02:20;102251.47;;;7.63;83.19
48630;BME280;34426;52.180;4.462;2023-02-02T03:04:57;102262.59;;;7.63;83.35
48630;BME280;34426;52.180;4.462;2023-02-02T03:07:27;102255.97;;;7.64;83.32
48630;BME280;34426;52.180;4.462;2023-02-02T03:09:56;102269.88;;;7.64;83.37
48630;BME280;34426;52.180;4.462;2023-02-02T03:12:23;102279.97;;;7.65;83.21
48630;BME280;34426;52.180;4.462;2023-02-02T03:14:48;102264.09;;;7.65;83.22
48630;BME280;34426;52.180;4.462;2023-02-02T03:17:14;102277.16;;;7.65;83.09
48630;BME280;34426;52.180;4.462;2023-02-02T03:19:39;102274.19;;;7.66;83.09
48630;BME280;34426;52.180;4.462;2023-02-02T03:22:06;102277.16;;;7.65;83.04
48630;BME280;34426;52.180;4.462;2023-02-02T03:24:32;102284.47;;;7.66;83.25
48630;BME280;34426;52.180;4.462;2023-02-02T03:26:58;102278.88;;;7.66;82.90
48630;BME280;34426;52.180;4.462;2023-02-02T03:29:24;102277.16;;;7.65;82.98
48630;BME280;34426;52.180;4.462;2023-02-02T03:31:49;102288.31;;;7.65;82.91
48630;BME280;34426;52.180;4.462;2023-02-02T03:34:15;102282.75;;;7.65;83.00
48630;BME280;34426;52.180;4.462;2023-02-02T03:36:40;102278.88;;;7.66;83.08
48630;BME280;34426;52.180;4.462;2023-02-02T03:39:07;102292.59;;;7.67;82.93
48630;BME280;34426;52.180;4.462;2023-02-02T03:41:33;102284.03;;;7.69;82.66
48630;BME280;34426;52.180;4.462;2023-02-02T03:43:58;102279.31;;;7.70;82.78
48630;BME280;34426;52.180;4.462;2023-02-02T03:46:24;102324.72;;;7.70;82.93
48630;BME280;34426;52.180;4.462;2023-02-02T03:48:49;102287.66;;;7.70;83.12
48630;BME280;34426;52.180;4.462;2023-02-02T03:51:14;102296.88;;;7.70;82.83
48630;BME280;34426;52.180;4.462;2023-02-02T03:53:40;102297.75;;;7.71;82.95
48630;BME280;34426;52.180;4.462;2023-02-02T03:56:07;102287.47;;;7.71;82.81
48630;BME280;34426;52.180;4.462;2023-02-02T03:58:33;102279.97;;;7.72;82.77
48630;BME280;34426;52.180;4.462;2023-02-02T04:01:03;102279.75;;;7.73;82.63
48630;BME280;34426;52.180;4.462;2023-02-02T04:03:30;102280.59;;;7.74;82.82
48630;BME280;34426;52.180;4.462;2023-02-02T04:05:58;102279.97;;;7.72;82.45
48630;BME280;34426;52.180;4.462;2023-02-02T04:08:25;102278.03;;;7.72;82.56
48630;BME280;34426;52.180;4.462;2023-02-02T04:10:52;102277.81;;;7.74;82.44
48630;BME280;34426;52.180;4.462;2023-02-02T04:13:22;102271.59;;;7.72;82.63
48630;BME280;34426;52.180;4.462;2023-02-02T04:15:57;102279.97;;;7.72;82.65
48630;BME280;34426;52.180;4.462;2023-02-02T04:18:24;102278.03;;;7.72;82.35
48630;BME280;34426;52.180;4.462;2023-02-02T04:20:55;102285.31;;;7.73;82.27
48630;BME280;34426;52.180;4.462;2023-02-02T04:23:20;102275.91;;;7.74;82.68
48630;BME280;34426;52.180;4.462;2023-02-02T04:25:48;102285.97;;;7.75;82.39
48630;BME280;34426;52.180;4.462;2023-02-02T04:28:13;102294.31;;;7.75;82.20
48630;BME280;34426;52.180;4.462;2023-02-02T04:30:40;102290.47;;;7.76;82.24
48630;BME280;34426;52.180;4.462;2023-02-02T04:33:05;102296.03;;;7.76;82.37
48630;BME280;34426;52.180;4.462;2023-02-02T04:35:31;102290.47;;;7.76;82.56
48630;BME280;34426;52.180;4.462;2023-02-02T04:37:56;102302.47;;;7.77;82.26
48630;BME280;34426;52.180;4.462;2023-02-02T04:40:22;102292.38;;;7.76;82.31
48630;BME280;34426;52.180;4.462;2023-02-02T04:42:48;102301.81;;;7.75;82.43
48630;BME280;34426;52.180;4.462;2023-02-02T04:45:14;102290.88;;;7.73;82.38
48630;BME280;34426;52.180;4.462;2023-02-02T04:47:41;102295.38;;;7.74;82.77
48630;BME280;34426;52.180;4.462;2023-02-02T04:50:07;102300.97;;;7.74;82.49
48630;BME280;34426;52.180;4.462;2023-02-02T04:52:33;102287.03;;;7.74;82.56
48630;BME280;34426;52.180;4.462;2023-02-02T04:54:58;102306.53;;;7.74;82.50
48630;BME280;34426;52.180;4.462;2023-02-02T04:57:24;102298.16;;;7.74;82.46
48630;BME280;34426;52.180;4.462;2023-02-02T04:59:50;102314.88;;;7.74;82.59
48630;BME280;34426;52.180;4.462;2023-02-02T05:02:15;102311.03;;;7.75;82.36
48630;BME280;34426;52.180;4.462;2023-02-02T05:04:42;102300.75;;;7.76;82.15
48630;BME280;34426;52.180;4.462;2023-02-02T05:07:08;102289.41;;;7.77;82.45
48630;BME280;34426;52.180;4.462;2023-02-02T05:09:33;102296.88;;;7.77;82.04
48630;BME280;34426;52.180;4.462;2023-02-02T05:11:59;102296.03;;;7.76;82.59
48630;BME280;34426;52.180;4.462;2023-02-02T05:14:24;102291.53;;;7.75;82.21
48630;BME280;34426;52.180;4.462;2023-02-02T05:16:49;102294.31;;;7.75;82.16
48630;BME280;34426;52.180;4.462;2023-02-02T05:19:15;102288.75;;;7.75;82.50
48630;BME280;34426;52.180;4.462;2023-02-02T05:21:42;102289.59;;;7.76;82.34
48630;BME280;34426;52.180;4.462;2023-02-02T05:24:08;102298.16;;;7.74;82.89
48630;BME280;34426;52.180;4.462;2023-02-02T05:26:33;102308.25;;;7.75;82.74
48630;BME280;34426;52.180;4.462;2023-02-02T05:28:59;102294.31;;;7.75;82.77
48630;BME280;34426;52.180;4.462;2023-02-02T05:31:24;102309.31;;;7.74;82.76
48630;BME280;34426;52.180;4.462;2023-02-02T05:33:50;102302.88;;;7.74;83.14
48630;BME280;34426;52.180;4.462;2023-02-02T05:36:15;102305.03;;;7.72;82.92
48630;BME280;34426;52.180;4.462;2023-02-02T05:38:42;102305.88;;;7.72;83.33
48630;BME280;34426;52.180;4.462;2023-02-02T05:41:08;102305.03;;;7.72;83.33
48630;BME280;34426;52.180;4.462;2023-02-02T05:43:33;102313.59;;;7.70;83.24
48630;BME280;34426;52.180;4.462;2023-02-02T05:45:59;102310.81;;;7.70;83.27
48630;BME280;34426;52.180;4.462;2023-02-02T05:48:25;102308.03;;;7.70;83.04
48630;BME280;34426;52.180;4.462;2023-02-02T05:50:56;102305.25;;;7.70;82.94
48630;BME280;34426;52.180;4.462;2023-02-02T05:53:23;102310.81;;;7.70;83.52
48630;BME280;34426;52.180;4.462;2023-02-02T05:55:50;102317.25;;;7.71;83.18
48630;BME280;34426;52.180;4.462;2023-02-02T05:58:15;102326.44;;;7.71;83.45
48630;BME280;34426;52.180;4.462;2023-02-02T06:00:41;102323.66;;;7.71;83.14
48630;BME280;34426;52.180;4.462;2023-02-02T06:03:06;102322.59;;;7.72;82.80
48630;BME280;34426;52.180;4.462;2023-02-02T06:05:32;102312.09;;;7.74;83.07
48630;BME280;34426;52.180;4.462;2023-02-02T06:07:57;102323.88;;;7.76;82.84
48630;BME280;34426;52.180;4.462;2023-02-02T06:10:23;102313.59;;;7.77;82.64
48630;BME280;34426;52.180;4.462;2023-02-02T06:12:50;102322.81;;;7.77;82.88
48630;BME280;34426;52.180;4.462;2023-02-02T06:15:15;102324.75;;;7.77;82.90
48630;BME280;34426;52.180;4.462;2023-02-02T06:17:40;102333.31;;;7.75;82.66
48630;BME280;34426;52.180;4.462;2023-02-02T06:20:07;102332.25;;;7.76;83.34
48630;BME280;34426;52.180;4.462;2023-02-02T06:22:32;102340.59;;;7.76;83.38
48630;BME280;34426;52.180;4.462;2023-02-02T06:24:57;102346.59;;;7.73;83.57
48630;BME280;34426;52.180;4.462;2023-02-02T06:27:23;102358.38;;;7.68;84.46
48630;BME280;34426;52.180;4.462;2023-02-02T06:29:50;102355.13;;;7.65;84.45
48630;BME280;34426;52.180;4.462;2023-02-02T06:32:15;102370.13;;;7.64;84.61
48630;BME280;34426;52.180;4.462;2023-02-02T06:34:41;102363.91;;;7.62;84.31
48630;BME280;34426;52.180;4.462;2023-02-02T06:37:06;102360.28;;;7.61;84.24
48630;BME280;34426;52.180;4.462;2023-02-02T06:39:32;102387.06;;;7.62;84.11
48630;BME280;34426;52.180;4.462;2023-02-02T06:41:59;102352.56;;;7.63;83.94
48630;BME280;34426;52.180;4.462;2023-02-02T06:44:25;102348.72;;;7.64;83.81
48630;BME280;34426;52.180;4.462;2023-02-02T06:46:51;102344.44;;;7.68;83.85
48630;BME280;34426;52.180;4.462;2023-02-02T06:49:17;102364.78;;;7.69;83.18
48630;BME280;34426;52.180;4.462;2023-02-02T06:51:43;102357.72;;;7.66;83.63
48630;BME280;34426;52.180;4.462;2023-02-02T06:54:08;102355.56;;;7.68;83.45
48630;BME280;34426;52.180;4.462;2023-02-02T06:56:33;102348.72;;;7.71;83.05
48630;BME280;34426;52.180;4.462;2023-02-02T06:58:59;102360.94;;;7.70;82.82
48630;BME280;34426;52.180;4.462;2023-02-02T07:01:24;102370.16;;;7.71;82.74
48630;BME280;34426;52.180;4.462;2023-02-02T07:03:51;102358.16;;;7.70;83.04
48630;BME280;34426;52.180;4.462;2023-02-02T07:06:19;102362.00;;;7.69;83.30
48630;BME280;34426;52.180;4.462;2023-02-02T07:08:46;102365.88;;;7.68;83.13
48630;BME280;34426;52.180;4.462;2023-02-02T07:11:12;102376.34;;;7.66;83.06
48630;BME280;34426;52.180;4.462;2023-02-02T07:13:38;102374.00;;;7.63;83.48
48630;BME280;34426;52.180;4.462;2023-02-02T07:16:04;102379.75;;;7.61;83.51
48630;BME280;34426;52.180;4.462;2023-02-02T07:18:30;102394.97;;;7.59;83.62
48630;BME280;34426;52.180;4.462;2023-02-02T07:20:58;102400.53;;;7.59;83.46
48630;BME280;34426;52.180;4.462;2023-02-02T07:23:24;102397.97;;;7.57;83.58
48630;BME280;34426;52.180;4.462;2023-02-02T07:25:59;102397.09;;;7.57;83.79
48630;BME280;34426;52.180;4.462;2023-02-02T07:28:25;102398.38;;;7.54;83.54
48630;BME280;34426;52.180;4.462;2023-02-02T07:30:52;102406.94;;;7.53;83.85
48630;BME280;34426;52.180;4.462;2023-02-02T07:33:17;102404.81;;;7.55;83.67
48630;BME280;34426;52.180;4.462;2023-02-02T07:35:43;102412.09;;;7.56;83.79
48630;BME280;34426;52.180;4.462;2023-02-02T07:38:10;102413.81;;;7.57;83.23
48630;BME280;34426;52.180;4.462;2023-02-02T07:40:35;102410.81;;;7.58;83.60
48630;BME280;34426;52.180;4.462;2023-02-02T07:43:01;102425.59;;;7.59;83.42
48630;BME280;34426;52.180;4.462;2023-02-02T07:45:26;102420.69;;;7.61;83.39
48630;BME280;34426;52.180;4.462;2023-02-02T07:47:54;102424.53;;;7.60;83.57
48630;BME280;34426;52.180;4.462;2023-02-02T07:50:20;102425.19;;;7.62;83.52
48630;BME280;34426;52.180;4.462;2023-02-02T07:52:45;102421.31;;;7.63;83.25
48630;BME280;34426;52.180;4.462;2023-02-02T07:55:12;102414.91;;;7.62;82.97
48630;BME280;34426;52.180;4.462;2023-02-02T07:57:38;102420.69;;;7.61;83.26
48630;BME280;34426;52.180;4.462;2023-02-02T08:00:04;102418.09;;;7.59;83.44
48630;BME280;34426;52.180;4.462;2023-02-02T08:02:30;102417.44;;;7.57;83.49
48630;BME280;34426;52.180;4.462;2023-02-02T08:04:55;102435.03;;;7.58;83.33
48630;BME280;34426;52.180;4.462;2023-02-02T08:07:21;102427.53;;;7.58;83.25
48630;BME280;34426;52.180;4.462;2023-02-02T08:09:46;102421.97;;;7.58;83.16
48630;BME280;34426;52.180;4.462;2023-02-02T08:12:13;102420.03;;;7.59;83.16
48630;BME280;34426;52.180;4.462;2023-02-02T08:14:38;102428.81;;;7.62;83.01
48630;BME280;34426;52.180;4.462;2023-02-02T08:17:04;102433.13;;;7.65;82.99
48630;BME280;34426;52.180;4.462;2023-02-02T08:19:29;102425.41;;;7.67;82.78
48630;BME280;34426;52.180;4.462;2023-02-02T08:21:55;102431.22;;;7.72;83.20
48630;BME280;34426;52.180;4.462;2023-02-02T08:24:20;102436.78;;;7.72;82.78
48630;BME280;34426;52.180;4.462;2023-02-02T08:26:46;102430.97;;;7.67;82.88
48630;BME280;34426;52.180;4.462;2023-02-02T08:29:13;102440.63;;;7.71;82.93
48630;BME280;34426;52.180;4.462;2023-02-02T08:31:39;102448.13;;;7.71;82.47
48630;BME280;34426;52.180;4.462;2023-02-02T08:34:04;102442.34;;;7.72;82.36
48630;BME280;34426;52.180;4.462;2023-02-02T08:36:30;102439.34;;;7.74;82.55
48630;BME280;34426;52.180;4.462;2023-02-02T08:38:59;102456.94;;;7.74;82.61
48630;BME280;34426;52.180;4.462;2023-02-02T08:41:24;102468.28;;;7.73;82.97
48630;BME280;34426;52.180;4.462;2023-02-02T08:43:50;102450.28;;;7.75;82.89
48630;BME280;34426;52.180;4.462;2023-02-02T08:46:18;102467.00;;;7.75;82.40
48630;BME280;34426;52.180;4.462;2023-02-02T08:48:44;102462.28;;;7.76;82.26
48630;BME280;34426;52.180;4.462;2023-02-02T08:51:11;102450.28;;;7.75;82.58
48630;BME280;34426;52.180;4.462;2023-02-02T08:53:37;102461.22;;;7.77;82.71
48630;BME280;34426;52.180;4.462;2023-02-02T08:56:04;102449.22;;;7.76;83.03
48630;BME280;34426;52.180;4.462;2023-02-02T08:58:30;102457.56;;;7.76;82.94
48630;BME280;34426;52.180;4.462;2023-02-02T09:01:03;102467.84;;;7.76;83.01
48630;BME280;34426;52.180;4.462;2023-02-02T09:03:31;102467.41;;;7.72;83.69
48630;BME280;34426;52.180;4.462;2023-02-02T09:05:57;102469.97;;;7.67;83.61
48630;BME280;34426;52.180;4.462;2023-02-02T09:08:22;102473.81;;;7.66;83.74
48630;BME280;34426;52.180;4.462;2023-02-02T09:10:48;102480.66;;;7.63;84.25
48630;BME280;34426;52.180;4.462;2023-02-02T09:13:13;102478.94;;;7.62;83.97
48630;BME280;34426;52.180;4.462;2023-02-02T09:15:39;102499.72;;;7.60;84.48
48630;BME280;34426;52.180;4.462;2023-02-02T09:18:04;102494.16;;;7.60;84.65
48630;BME280;34426;52.180;4.462;2023-02-02T09:20:31;102487.91;;;7.58;85.07
48630;BME280;34426;52.180;4.462;2023-02-02T09:22:56;102491.56;;;7.58;85.46
48630;BME280;34426;52.180;4.462;2023-02-02T09:25:22;102489.63;;;7.59;85.75
48630;BME280;34426;52.180;4.462;2023-02-02T09:27:48;102487.75;;;7.66;85.73
48630;BME280;34426;52.180;4.462;2023-02-02T09:30:14;102492.06;;;7.75;84.81
48630;BME280;34426;52.180;4.462;2023-02-02T09:32:39;102492.72;;;7.77;84.91
48630;BME280;34426;52.180;4.462;2023-02-02T09:35:06;102499.13;;;7.84;84.12
48630;BME280;34426;52.180;4.462;2023-02-02T09:37:33;102499.59;;;7.88;83.78
48630;BME280;34426;52.180;4.462;2023-02-02T09:39:59;102490.19;;;7.95;83.85
48630;BME280;34426;52.180;4.462;2023-02-02T09:42:39;102488.47;;;7.94;83.06
48630;BME280;34426;52.180;4.462;2023-02-02T09:45:17;102490.19;;;7.95;83.40
48630;BME280;34426;52.180;4.462;2023-02-02T09:47:54;102486.75;;;7.93;82.94
48630;BME280;34426;52.180;4.462;2023-02-02T09:50:32;102491.91;;;7.96;83.05
48630;BME280;34426;52.180;4.462;2023-02-02T09:53:03;102483.31;;;7.98;82.79
48630;BME280;34426;52.180;4.462;2023-02-02T09:55:34;102482.03;;;8.00;82.67
48630;BME280;34426;52.180;4.462;2023-02-02T09:58:06;102487.84;;;8.06;82.57
48630;BME280;34426;52.180;4.462;2023-02-02T10:00:38;102502.44;;;8.08;82.23
48630;BME280;34426;52.180;4.462;2023-02-02T10:03:11;102506.94;;;8.09;82.29
48630;BME280;34426;52.180;4.462;2023-02-02T10:05:45;102494.94;;;8.15;81.45
48630;BME280;34426;52.180;4.462;2023-02-02T10:08:17;102502.22;;;8.16;81.59
48630;BME280;34426;52.180;4.462;2023-02-02T10:10:46;102509.09;;;8.20;81.39
48630;BME280;34426;52.180;4.462;2023-02-02T10:13:14;102506.31;;;8.20;81.79
48630;BME280;34426;52.180;4.462;2023-02-02T10:15:47;102517.47;;;8.20;81.22
48630;BME280;34426;52.180;4.462;2023-02-02T10:18:20;102524.56;;;8.22;81.80
48630;BME280;34426;52.180;4.462;2023-02-02T10:20:51;102527.34;;;8.22;81.46
48630;BME280;34426;52.180;4.462;2023-02-02T10:23:24;102522.63;;;8.23;81.84
48630;BME280;34426;52.180;4.462;2023-02-02T10:25:55;102525.41;;;8.23;80.82
48630;BME280;34426;52.180;4.462;2023-02-02T10:28:33;102529.28;;;8.35;80.85
48630;BME280;34426;52.180;4.462;2023-02-02T10:31:06;102533.97;;;8.28;81.00
48630;BME280;34426;52.180;4.462;2023-02-02T10:33:37;102536.34;;;8.31;81.12
48630;BME280;34426;52.180;4.462;2023-02-02T10:36:09;102534.88;;;8.42;80.60
48630;BME280;34426;52.180;4.462;2023-02-02T10:38:43;102537.47;;;8.56;80.58
48630;BME280;34426;52.180;4.462;2023-02-02T10:41:17;102546.50;;;8.58;80.65
48630;BME280;34426;52.180;4.462;2023-02-02T10:43:57;102537.28;;;8.64;80.73
48630;BME280;34426;52.180;4.462;2023-02-02T10:46:29;102534.50;;;8.64;80.35
48630;BME280;34426;52.180;4.462;2023-02-02T10:49:08;102516.00;;;8.70;80.48
48630;BME280;34426;52.180;4.462;2023-02-02T10:51:35;102512.16;;;8.78;79.36
48630;BME280;34426;52.180;4.462;2023-02-02T10:54:06;102537.03;;;8.79;79.43
48630;BME280;34426;52.180;4.462;2023-02-02T10:56:37;102527.59;;;8.74;79.61
48630;BME280;34426;52.180;4.462;2023-02-02T10:59:06;102526.94;;;8.72;78.97
48630;BME280;34426;52.180;4.462;2023-02-02T11:01:35;102533.59;;;8.71;79.33
48630;BME280;34426;52.180;4.462;2023-02-02T11:04:01;102526.72;;;8.66;79.93
48630;BME280;34426;52.180;4.462;2023-02-02T11:06:27;102537.91;;;8.73;79.51
48630;BME280;34426;52.180;4.462;2023-02-02T11:08:53;102533.19;;;8.74;79.50
48630;BME280;34426;52.180;4.462;2023-02-02T11:11:22;102533.19;;;8.74;79.80
48630;BME280;34426;52.180;4.462;2023-02-02T11:13:52;102532.75;;;8.70;79.55
48630;BME280;34426;52.180;4.462;2023-02-02T11:16:23;102545.41;;;8.73;79.39
48630;BME280;34426;52.180;4.462;2023-02-02T11:18:49;102549.91;;;8.67;79.54
48630;BME280;34426;52.180;4.462;2023-02-02T11:21:21;102546.91;;;8.68;79.17
48630;BME280;34426;52.180;4.462;2023-02-02T11:23:52;102544.97;;;8.69;79.13
48630;BME280;34426;52.180;4.462;2023-02-02T11:26:21;102540.94;;;8.65;79.64
48630;BME280;34426;52.180;4.462;2023-02-02T11:28:47;102542.66;;;8.66;80.03
48630;BME280;34426;52.180;4.462;2023-02-02T11:31:29;102539.19;;;8.71;79.72
48630;BME280;34426;52.180;4.462;2023-02-02T11:34:07;102543.03;;;8.70;79.26
48630;BME280;34426;52.180;4.462;2023-02-02T11:36:33;102549.50;;;8.77;79.70
48630;BME280;34426;52.180;4.462;2023-02-02T11:39:13;102537.03;;;8.73;79.61
48630;BME280;34426;52.180;4.462;2023-02-02T11:41:40;102548.88;;;8.61;79.76
48630;BME280;34426;52.180;4.462;2023-02-02T11:44:16;102553.16;;;8.64;80.13
48630;BME280;34426;52.180;4.462;2023-02-02T11:46:46;102544.13;;;8.68;79.90
48630;BME280;34426;52.180;4.462;2023-02-02T11:49:15;102541.75;;;8.72;80.24
48630;BME280;34426;52.180;4.462;2023-02-02T11:51:42;102539.63;;;8.81;80.19
48630;BME280;34426;52.180;4.462;2023-02-02T11:54:27;102538.75;;;8.74;79.72
48630;BME280;34426;52.180;4.462;2023-02-02T11:56:56;102542.63;;;8.73;80.07
48630;BME280;34426;52.180;4.462;2023-02-02T11:59:32;102539.63;;;8.74;80.06
48630;BME280;34426;52.180;4.462;2023-02-02T12:02:22;102537.06;;;8.59;80.09
48630;BME280;34426;52.180;4.462;2023-02-02T12:04:49;102538.56;;;8.55;81.15
48630;BME280;34426;52.180;4.462;2023-02-02T12:07:23;102530.81;;;8.51;81.21
48630;BME280;34426;52.180;4.462;2023-02-02T12:09:50;102530.16;;;8.42;81.26
48630;BME280;34426;52.180;4.462;2023-02-02T12:12:37;102537.00;;;8.33;82.49
48630;BME280;34426;52.180;4.462;2023-02-02T12:15:14;102534.84;;;8.22;83.18
48630;BME280;34426;52.180;4.462;2023-02-02T12:17:44;102536.97;;;8.13;84.39
48630;BME280;34426;52.180;4.462;2023-02-02T12:20:19;102539.06;;;8.05;85.73
48630;BME280;34426;52.180;4.462;2023-02-02T12:22:55;102541.63;;;7.99;86.45
48630;BME280;34426;52.180;4.462;2023-02-02T12:25:44;102545.91;;;7.95;86.94
48630;BME280;34426;52.180;4.462;2023-02-02T12:28:21;102546.06;;;7.81;88.43
48630;BME280;34426;52.180;4.462;2023-02-02T12:30:56;102539.41;;;7.75;89.15
48630;BME280;34426;52.180;4.462;2023-02-02T12:33:30;102535.94;;;7.66;89.84
48630;BME280;34426;52.180;4.462;2023-02-02T12:36:17;102538.00;;;7.51;91.12
48630;BME280;34426;52.180;4.462;2023-02-02T12:38:58;102529.22;;;7.48;91.46
48630;BME280;34426;52.180;4.462;2023-02-02T12:41:35;102535.19;;;7.45;92.00
48630;BME280;34426;52.180;4.462;2023-02-02T12:44:10;102531.50;;;7.38;92.22
48630;BME280;34426;52.180;4.462;2023-02-02T12:47:01;102538.13;;;7.37;92.44
48630;BME280;34426;52.180;4.462;2023-02-02T12:49:58;102538.38;;;7.35;92.92
48630;BME280;34426;52.180;4.462;2023-02-02T12:52:36;102523.34;;;7.29;92.72
48630;BME280;34426;52.180;4.462;2023-02-02T12:55:21;102524.66;;;7.33;93.04
48630;BME280;34426;52.180;4.462;2023-02-02T12:57:52;102525.94;;;7.31;93.15
48630;BME280;34426;52.180;4.462;2023-02-02T13:03:30;102522.03;;;7.25;93.53
48630;BME280;34426;52.180;4.462;2023-02-02T13:06:22;102520.94;;;7.20;93.53
48630;BME280;34426;52.180;4.462;2023-02-02T13:08:56;102512.59;;;7.20;93.67
48630;BME280;34426;52.180;4.462;2023-02-02T13:11:33;102511.31;;;7.22;93.80
48630;BME280;34426;52.180;4.462;2023-02-02T13:14:07;102508.31;;;7.24;93.83
48630;BME280;34426;52.180;4.462;2023-02-02T13:16:35;102519.66;;;7.22;93.73
48630;BME280;34426;52.180;4.462;2023-02-02T13:19:05;102508.94;;;7.19;93.92
48630;BME280;34426;52.180;4.462;2023-02-02T13:21:34;102505.75;;;7.22;93.85